Time;durP1;ratioP1;P1;durP2;ratioP2;P2;SDS_P1;SDS_P2;PMS_P1;PMS_P2;Temp;Humidity;BMP_temperature;BMP_pressure;BME280_temperature;BME280_humidity;BME280_pressure;Samples;Min_cycle;Max_cycle;Signal;HPM_P1;HPM_P2
2022/07/17 00:02:50;;;;;;;10.45;2.60;;;;;;;;;;10240429;28;20479;-63
2022/07/17 00:07:49;;;;;;;5.55;2.65;;;;;;;;;;10244406;28;20075;-63
2022/07/17 00:12:48;;;;;;;7.05;3.72;;;;;;;;;;10241739;28;20066;-63
2022/07/17 00:17:46;;;;;;;9.05;2.70;;;;;;;;;;10246183;28;20068;-65
2022/07/17 00:22:45;;;;;;;5.47;2.33;;;;;;;;;;10245559;28;20088;-66
2022/07/17 00:27:44;;;;;;;7.47;3.58;;;;;;;;;;10244011;28;20683;-63
2022/07/17 00:32:43;;;;;;;4.35;2.90;;;;;;;;;;10246496;28;20056;-63
2022/07/17 00:37:42;;;;;;;6.90;3.22;;;;;;;;;;10244925;28;20071;-63
2022/07/17 00:42:40;;;;;;;6.03;2.78;;;;;;;;;;10244716;28;20144;-64
2022/07/17 00:47:47;;;;;;;4.03;2.47;;;;;;;;;;10244371;28;20068;-63
2022/07/17 00:52:45;;;;;;;4.82;2.80;;;;;;;;;;10241206;28;20510;-63
2022/07/17 00:57:46;;;;;;;7.28;3.30;;;;;;;;;;10243923;28;20068;-63
2022/07/17 01:02:47;;;;;;;5.32;2.78;;;;;;;;;;10244801;28;20088;-63
2022/07/17 01:07:46;;;;;;;6.10;3.17;;;;;;;;;;10243678;28;20478;-63
2022/07/17 01:12:45;;;;;;;4.57;2.30;;;;;;;;;;10244538;28;20506;-64
2022/07/17 01:17:44;;;;;;;3.60;2.55;;;;;;;;;;10243847;28;20076;-63
2022/07/17 01:22:44;;;;;;;2.92;2.63;;;;;;;;;;10243234;28;20084;-63
2022/07/17 01:27:43;;;;;;;5.28;2.75;;;;;;;;;;10235569;28;20530;-63
2022/07/17 01:32:42;;;;;;;5.28;2.65;;;;;;;;;;10232677;28;20073;-63
2022/07/17 01:37:41;;;;;;;4.28;2.63;;;;;;;;;;10229031;28;20065;-63
2022/07/17 01:42:42;;;;;;;4.50;2.80;;;;;;;;;;10239271;28;20088;-63
2022/07/17 01:47:41;;;;;;;7.72;4.00;;;;;;;;;;10242995;28;20085;-66
2022/07/17 01:52:41;;;;;;;5.68;3.00;;;;;;;;;;10244295;28;20088;-66
2022/07/17 01:57:40;;;;;;;5.22;2.75;;;;;;;;;;10243358;28;20048;-65
2022/07/17 02:02:39;;;;;;;6.03;3.25;;;;;;;;;;10242625;28;20077;-65
2022/07/17 02:07:39;;;;;;;7.88;3.60;;;;;;;;;;10244336;28;20080;-66
2022/07/17 02:12:38;;;;;;;3.90;3.42;;;;;;;;;;10249566;28;20140;-65
2022/07/17 02:17:38;;;;;;;5.18;3.72;;;;;;;;;;10244548;28;20073;-66
2022/07/17 02:22:36;;;;;;;7.28;3.30;;;;;;;;;;10250244;28;20089;-66
2022/07/17 02:27:35;;;;;;;8.02;3.58;;;;;;;;;;10250068;28;20487;-66
2022/07/17 02:32:34;;;;;;;6.50;2.90;;;;;;;;;;10250400;28;20072;-65
2022/07/17 02:37:34;;;;;;;4.65;3.05;;;;;;;;;;10249630;28;20061;-65
2022/07/17 02:42:33;;;;;;;5.07;2.92;;;;;;;;;;10249852;28;20080;-66
2022/07/17 02:47:32;;;;;;;4.00;3.33;;;;;;;;;;10248751;28;20072;-65
2022/07/17 02:52:31;;;;;;;6.68;3.47;;;;;;;;;;10248875;28;20475;-66
2022/07/17 02:57:30;;;;;;;8.35;3.03;;;;;;;;;;10242697;28;20091;-66
2022/07/17 03:02:29;;;;;;;6.60;3.22;;;;;;;;;;10235289;28;20076;-67
2022/07/17 03:07:27;;;;;;;6.55;3.83;;;;;;;;;;10237344;28;20483;-66
2022/07/17 03:12:25;;;;;;;8.35;3.55;;;;;;;;;;10242051;28;20342;-66
2022/07/17 03:17:25;;;;;;;4.45;3.25;;;;;;;;;;10237703;28;20072;-66
2022/07/17 03:22:25;;;;;;;6.75;3.92;;;;;;;;;;10242009;28;20081;-66
2022/07/17 03:27:24;;;;;;;11.82;3.60;;;;;;;;;;10236353;28;20084;-65
2022/07/17 03:32:22;;;;;;;4.78;3.30;;;;;;;;;;10233087;28;20073;-66
2022/07/17 03:37:22;;;;;;;11.48;3.30;;;;;;;;;;10241605;28;20125;-67
2022/07/17 03:42:21;;;;;;;11.23;3.28;;;;;;;;;;10238914;28;20084;-66
2022/07/17 03:47:19;;;;;;;4.25;2.97;;;;;;;;;;10241557;28;20084;-66
2022/07/17 03:52:18;;;;;;;7.93;3.65;;;;;;;;;;10242745;28;20084;-66
2022/07/17 03:57:17;;;;;;;5.50;2.72;;;;;;;;;;10242462;28;20087;-65
2022/07/17 04:02:16;;;;;;;6.55;4.15;;;;;;;;;;10244034;28;20068;-66
2022/07/17 04:07:27;;;;;;;7.53;4.18;;;;;;;;;;10237465;28;20113;-66
2022/07/17 04:12:27;;;;;;;4.90;4.35;;;;;;;;;;10233982;28;20092;-66
2022/07/17 04:17:26;;;;;;;8.88;4.43;;;;;;;;;;10235366;28;20073;-66
2022/07/17 04:22:25;;;;;;;5.90;4.25;;;;;;;;;;10238604;28;20068;-66
2022/07/17 04:27:23;;;;;;;8.50;4.30;;;;;;;;;;10235997;28;20075;-66
2022/07/17 04:32:23;;;;;;;4.53;4.13;;;;;;;;;;10244620;28;20072;-67
2022/07/17 04:37:21;;;;;;;8.80;4.32;;;;;;;;;;10235884;28;20498;-66
2022/07/17 04:42:19;;;;;;;5.75;4.38;;;;;;;;;;10230637;28;20068;-66
2022/07/17 04:47:17;;;;;;;7.78;4.55;;;;;;;;;;10233795;28;20073;-66
2022/07/17 04:52:17;;;;;;;16.02;7.80;;;;;;;;;;10234399;28;20089;-67
2022/07/17 04:57:16;;;;;;;19.88;5.57;;;;;;;;;;10238710;28;20514;-66
2022/07/17 05:02:14;;;;;;;9.00;4.43;;;;;;;;;;10242829;28;20518;-66
2022/07/17 05:07:13;;;;;;;9.63;4.78;;;;;;;;;;10234525;28;20782;-67
2022/07/17 05:12:12;;;;;;;10.32;4.70;;;;;;;;;;10232963;28;20077;-67
2022/07/17 05:17:11;;;;;;;5.85;4.43;;;;;;;;;;10233534;28;20116;-67
2022/07/17 05:22:09;;;;;;;6.55;5.20;;;;;;;;;;10233256;28;20065;-67
2022/07/17 05:27:07;;;;;;;7.93;4.80;;;;;;;;;;10232985;28;20042;-67
2022/07/17 05:32:07;;;;;;;8.90;5.85;;;;;;;;;;10237490;28;20084;-67
2022/07/17 05:37:05;;;;;;;8.48;5.50;;;;;;;;;;10244940;28;20498;-67
2022/07/17 05:42:04;;;;;;;10.30;4.70;;;;;;;;;;10243954;28;20085;-67
2022/07/17 05:47:02;;;;;;;7.05;6.32;;;;;;;;;;10253864;28;20049;-68
2022/07/17 05:52:02;;;;;;;6.70;5.03;;;;;;;;;;10248440;28;20080;-67
2022/07/17 05:57:00;;;;;;;9.25;6.28;;;;;;;;;;10253216;28;20080;-67
2022/07/17 06:02:07;;;;;;;9.48;7.65;;;;;;;;;;10246006;28;20060;-68
2022/07/17 06:07:07;;;;;;;12.02;6.00;;;;;;;;;;10235088;28;20076;-67
2022/07/17 06:12:05;;;;;;;9.10;5.90;;;;;;;;;;10240933;28;20099;-68
2022/07/17 06:17:04;;;;;;;11.90;6.75;;;;;;;;;;10242396;28;20478;-67
2022/07/17 06:22:02;;;;;;;12.95;5.85;;;;;;;;;;10244908;28;20073;-67
2022/07/17 06:27:02;;;;;;;11.77;7.28;;;;;;;;;;10248231;28;20069;-67
2022/07/17 06:32:00;;;;;;;9.05;6.82;;;;;;;;;;10252043;28;20167;-67
2022/07/17 06:36:58;;;;;;;7.57;5.57;;;;;;;;;;10241979;28;20076;-67
2022/07/17 06:41:57;;;;;;;12.38;5.57;;;;;;;;;;10252321;28;20489;-67
2022/07/17 06:46:58;;;;;;;10.45;6.13;;;;;;;;;;10249190;28;20045;-67
2022/07/17 06:51:56;;;;;;;8.13;5.72;;;;;;;;;;10250180;28;20084;-68
2022/07/17 06:56:54;;;;;;;6.85;5.13;;;;;;;;;;10248608;28;20079;-67
2022/07/17 07:01:53;;;;;;;6.60;3.90;;;;;;;;;;10247790;28;20076;-67
2022/07/17 07:06:53;;;;;;;6.35;4.38;;;;;;;;;;10246222;28;20490;-68
2022/07/17 07:11:51;;;;;;;6.95;4.95;;;;;;;;;;10242451;28;20084;-67
2022/07/17 07:16:49;;;;;;;7.70;5.20;;;;;;;;;;10239882;28;20068;-67
2022/07/17 07:21:48;;;;;;;7.65;5.57;;;;;;;;;;10243873;28;20511;-68
2022/07/17 07:26:48;;;;;;;7.93;5.50;;;;;;;;;;10247969;28;20092;-67
2022/07/17 07:31:47;;;;;;;5.25;4.43;;;;;;;;;;10243666;28;20080;-67
2022/07/17 07:36:46;;;;;;;6.38;4.20;;;;;;;;;;10243194;28;20068;-68
2022/07/17 07:41:48;;;;;;;7.65;5.05;;;;;;;;;;10240907;28;20049;-68
2022/07/17 07:46:46;;;;;;;8.48;5.78;;;;;;;;;;10237160;28;20045;-68
2022/07/17 07:51:45;;;;;;;4.30;3.67;;;;;;;;;;10237244;28;20073;-68
2022/07/17 07:57:03;;;;;;;5.35;3.95;;;;;;;;;;10240015;28;20079;-68
2022/07/17 08:02:01;;;;;;;6.68;4.43;;;;;;;;;;10241993;28;20087;-68
2022/07/17 08:07:00;;;;;;;12.98;5.50;;;;;;;;;;10247022;28;20065;-67
2022/07/17 08:11:58;;;;;;;6.32;3.90;;;;;;;;;;10246120;28;20080;-67
2022/07/17 08:17:08;;;;;;;9.38;4.68;;;;;;;;;;10245543;28;20500;-69
2022/07/17 08:22:07;;;;;;;7.80;4.30;;;;;;;;;;10246775;28;20083;-67
2022/07/17 08:27:05;;;;;;;6.88;4.47;;;;;;;;;;10246214;28;20061;-67
2022/07/17 08:32:05;;;;;;;4.45;3.30;;;;;;;;;;10246335;28;20095;-68
2022/07/17 08:37:05;;;;;;;7.88;3.17;;;;;;;;;;10247086;28;20037;-67
2022/07/17 08:42:03;;;;;;;3.85;3.45;;;;;;;;;;10241380;28;20091;-68
2022/07/17 08:47:02;;;;;;;3.97;3.35;;;;;;;;;;10244262;28;20071;-69
2022/07/17 08:52:01;;;;;;;3.47;3.15;;;;;;;;;;10246131;28;20069;-68
2022/07/17 08:57:00;;;;;;;5.88;2.45;;;;;;;;;;10243933;28;20087;-68
2022/07/17 09:01:59;;;;;;;9.25;5.07;;;;;;;;;;10241368;28;20045;-68
2022/07/17 09:07:01;;;;;;;5.95;5.05;;;;;;;;;;10240470;28;20088;-68
2022/07/17 09:12:02;;;;;;;6.35;3.05;;;;;;;;;;10246451;28;20076;-68
2022/07/17 09:17:01;;;;;;;5.70;3.72;;;;;;;;;;10243303;28;20479;-68
2022/07/17 09:22:06;;;;;;;4.35;3.40;;;;;;;;;;10241620;28;20076;-70
2022/07/17 09:27:06;;;;;;;4.78;3.05;;;;;;;;;;10230205;28;20073;-69
2022/07/17 09:32:05;;;;;;;6.93;4.18;;;;;;;;;;10233580;28;20076;-69
2022/07/17 09:37:04;;;;;;;3.97;3.10;;;;;;;;;;10227964;28;20171;-68
2022/07/17 09:42:04;;;;;;;8.85;6.07;;;;;;;;;;10241258;28;20083;-72
2022/07/17 09:47:04;;;;;;;5.57;3.63;;;;;;;;;;10243747;28;20459;-69
2022/07/17 09:52:03;;;;;;;3.40;2.63;;;;;;;;;;10243254;28;20519;-69
2022/07/17 09:57:06;;;;;;;7.13;4.32;;;;;;;;;;10244455;28;20494;-69
2022/07/17 10:02:06;;;;;;;10.67;4.13;;;;;;;;;;10244534;28;20297;-69
2022/07/17 10:07:05;;;;;;;4.03;2.97;;;;;;;;;;10237562;28;20081;-68
2022/07/17 10:12:04;;;;;;;3.28;2.25;;;;;;;;;;10248800;28;20080;-69
2022/07/17 10:17:10;;;;;;;9.77;2.97;;;;;;;;;;10242065;28;20554;-68
2022/07/17 10:22:09;;;;;;;7.10;2.80;;;;;;;;;;10244669;28;20076;-69
2022/07/17 10:27:18;;;;;;;3.60;2.45;;;;;;;;;;10242813;28;20458;-69
2022/07/17 10:32:18;;;;;;;4.47;3.38;;;;;;;;;;10249692;28;20493;-69
2022/07/17 10:37:18;;;;;;;5.50;3.78;;;;;;;;;;10245640;28;20477;-68
2022/07/17 10:42:16;;;;;;;3.65;2.85;;;;;;;;;;10245970;28;20149;-69
2022/07/17 10:47:15;;;;;;;4.07;2.78;;;;;;;;;;10238559;28;20474;-70
2022/07/17 10:52:24;;;;;;;3.40;2.28;;;;;;;;;;10235409;28;20081;-68
2022/07/17 10:57:22;;;;;;;7.43;3.25;;;;;;;;;;10241417;28;20084;-70
2022/07/17 11:02:28;;;;;;;5.32;2.72;;;;;;;;;;10237967;28;20474;-68
2022/07/17 11:07:28;;;;;;;4.85;2.67;;;;;;;;;;10244218;28;20521;-68
2022/07/17 11:12:31;;;;;;;3.55;2.97;;;;;;;;;;10243989;28;20073;-69
2022/07/17 11:17:29;;;;;;;6.57;3.75;;;;;;;;;;10249016;28;20076;-68
2022/07/17 11:22:29;;;;;;;2.80;2.20;;;;;;;;;;10249230;28;20262;-69
2022/07/17 11:27:28;;;;;;;4.60;2.40;;;;;;;;;;10249470;28;20075;-70
2022/07/17 11:32:33;;;;;;;3.95;2.72;;;;;;;;;;10243145;28;20068;-68
2022/07/17 11:37:32;;;;;;;2.95;2.10;;;;;;;;;;10244780;28;20654;-68
2022/07/17 11:42:31;;;;;;;6.00;2.45;;;;;;;;;;10248033;28;20081;-68
2022/07/17 11:47:29;;;;;;;3.90;2.60;;;;;;;;;;10244914;28;20072;-68
2022/07/17 11:52:29;;;;;;;3.97;2.20;;;;;;;;;;10243783;28;20068;-69
2022/07/17 11:57:41;;;;;;;2.92;2.35;;;;;;;;;;10236676;28;20057;-69
2022/07/17 12:02:40;;;;;;;3.38;2.75;;;;;;;;;;10236780;28;20491;-69
2022/07/17 12:07:45;;;;;;;2.60;2.40;;;;;;;;;;10242990;28;20080;-71
2022/07/17 12:12:57;;;;;;;9.32;2.40;;;;;;;;;;10245818;28;20085;-69
2022/07/17 12:17:56;;;;;;;5.43;2.35;;;;;;;;;;10242566;28;20077;-70
2022/07/17 12:22:55;;;;;;;8.48;2.70;;;;;;;;;;10247050;28;20107;-69
2022/07/17 12:28:00;;;;;;;5.85;2.70;;;;;;;;;;10246471;28;20529;-69
2022/07/17 12:32:58;;;;;;;6.65;2.83;;;;;;;;;;10255772;28;20144;-69
2022/07/17 12:37:57;;;;;;;3.70;2.90;;;;;;;;;;10243023;28;20068;-68
2022/07/17 12:42:55;;;;;;;4.97;2.53;;;;;;;;;;10242824;28;20552;-68
2022/07/17 12:47:55;;;;;;;3.65;3.22;;;;;;;;;;10245643;28;20364;-69
2022/07/17 12:52:54;;;;;;;9.27;2.50;;;;;;;;;;10245147;28;20486;-68
2022/07/17 12:57:58;;;;;;;6.45;2.20;;;;;;;;;;10238500;28;20463;-68
2022/07/17 13:02:58;;;;;;;4.88;3.75;;;;;;;;;;10239561;28;20079;-69
2022/07/17 13:07:58;;;;;;;4.45;2.53;;;;;;;;;;10243308;28;20354;-68
2022/07/17 13:12:57;;;;;;;2.70;2.50;;;;;;;;;;10245643;28;20400;-69
2022/07/17 13:17:55;;;;;;;5.70;2.92;;;;;;;;;;10244460;28;20080;-68
2022/07/17 13:22:55;;;;;;;4.22;3.35;;;;;;;;;;10244911;28;20124;-69
2022/07/17 13:27:54;;;;;;;4.32;3.60;;;;;;;;;;10243868;28;20075;-68
2022/07/17 13:32:53;;;;;;;6.57;3.78;;;;;;;;;;10235373;28;20085;-69
2022/07/17 13:37:52;;;;;;;4.50;3.05;;;;;;;;;;10233031;28;20076;-69
2022/07/17 13:42:52;;;;;;;7.43;3.50;;;;;;;;;;10238678;28;20064;-69
2022/07/17 13:47:50;;;;;;;5.15;4.47;;;;;;;;;;10246235;28;20079;-69
2022/07/17 13:52:49;;;;;;;5.10;3.00;;;;;;;;;;10242801;28;20078;-69
2022/07/17 13:57:48;;;;;;;4.05;2.80;;;;;;;;;;10244713;28;20524;-69
2022/07/17 14:02:47;;;;;;;2.50;2.30;;;;;;;;;;10245300;28;20528;-69
2022/07/17 14:07:46;;;;;;;6.72;3.30;;;;;;;;;;10250904;28;20073;-69
2022/07/17 14:12:44;;;;;;;7.00;3.65;;;;;;;;;;10244399;28;20081;-69
2022/07/17 14:17:43;;;;;;;5.15;3.25;;;;;;;;;;10240138;28;20073;-69
2022/07/17 14:22:42;;;;;;;9.68;4.00;;;;;;;;;;10236327;28;20077;-69
2022/07/17 14:27:41;;;;;;;4.25;2.95;;;;;;;;;;10244918;28;20095;-68
2022/07/17 14:32:39;;;;;;;3.70;3.03;;;;;;;;;;10248573;28;20084;-68
2022/07/17 14:37:38;;;;;;;5.38;3.15;;;;;;;;;;10250856;28;20076;-69
2022/07/17 14:42:40;;;;;;;;;;;;;;;;;;10251873;28;20480;-68
2022/07/17 14:47:40;;;;;;;5.07;2.92;;;;;;;;;;10242672;28;19960;-68
2022/07/17 14:52:39;;;;;;;4.00;2.85;;;;;;;;;;10237959;28;20304;-68
2022/07/17 14:57:37;;;;;;;5.70;2.97;;;;;;;;;;10238501;28;20061;-68
2022/07/17 15:02:35;;;;;;;3.78;3.10;;;;;;;;;;10244544;28;20083;-68
2022/07/17 15:07:35;;;;;;;7.80;3.53;;;;;;;;;;10241452;28;20084;-67
2022/07/17 15:12:34;;;;;;;6.47;3.42;;;;;;;;;;10239291;28;20589;-68
2022/07/17 15:17:32;;;;;;;6.53;4.53;;;;;;;;;;10230141;28;20408;-69
2022/07/17 15:22:30;;;;;;;8.57;4.15;;;;;;;;;;10230325;28;20073;-69
2022/07/17 15:27:30;;;;;;;7.43;4.40;;;;;;;;;;10236841;28;20496;-69
2022/07/17 15:32:28;;;;;;;7.85;4.35;;;;;;;;;;10238991;28;20081;-68
2022/07/17 15:37:27;;;;;;;6.13;5.15;;;;;;;;;;10237264;28;20085;-68
2022/07/17 15:42:26;;;;;;;4.72;3.08;;;;;;;;;;10237054;28;20073;-68
2022/07/17 15:47:25;;;;;;;6.85;4.93;;;;;;;;;;10241470;28;20075;-69
2022/07/17 15:52:24;;;;;;;9.50;5.18;;;;;;;;;;10239332;28;20073;-69
2022/07/17 15:57:22;;;;;;;8.15;4.82;;;;;;;;;;10249017;28;20080;-67
2022/07/17 16:02:22;;;;;;;5.65;5.00;;;;;;;;;;10237761;28;20071;-67
2022/07/17 16:07:22;;;;;;;7.05;5.32;;;;;;;;;;10257601;28;20076;-68
2022/07/17 16:12:20;;;;;;;9.10;5.28;;;;;;;;;;10245922;28;20096;-68
2022/07/17 16:17:19;;;;;;;4.72;4.10;;;;;;;;;;10249936;28;20076;-69
2022/07/17 16:22:17;;;;;;;4.18;3.78;;;;;;;;;;10241532;28;20077;-69
2022/07/17 16:27:17;;;;;;;7.20;3.83;;;;;;;;;;10245528;28;20503;-66
2022/07/17 16:32:15;;;;;;;6.82;4.28;;;;;;;;;;10243218;28;20099;-66
2022/07/17 16:37:13;;;;;;;5.82;3.60;;;;;;;;;;10244522;28;20079;-66
2022/07/17 16:42:12;;;;;;;7.32;4.10;;;;;;;;;;10244784;28;20085;-66
2022/07/17 16:47:12;;;;;;;7.63;5.32;;;;;;;;;;10234190;28;20451;-67
2022/07/17 16:52:11;;;;;;;9.95;4.28;;;;;;;;;;10234494;28;20049;-66
2022/07/17 16:57:09;;;;;;;6.47;3.60;;;;;;;;;;10237623;28;20271;-66
2022/07/17 17:02:09;;;;;;;4.85;3.13;;;;;;;;;;10243397;28;20097;-66
2022/07/17 17:07:09;;;;;;;5.82;3.60;;;;;;;;;;10239341;28;20084;-66
2022/07/17 17:12:08;;;;;;;8.80;3.55;;;;;;;;;;10241853;28;20084;-67
2022/07/17 17:17:06;;;;;;;6.47;3.92;;;;;;;;;;10238629;28;20076;-66
2022/07/17 17:22:05;;;;;;;4.25;3.28;;;;;;;;;;10243767;28;20103;-66
2022/07/17 17:27:05;;;;;;;6.30;2.20;;;;;;;;;;10240495;28;20092;-66
2022/07/17 17:32:04;;;;;;;6.07;2.92;;;;;;;;;;10240189;28;20064;-66
2022/07/17 17:37:05;;;;;;;11.77;3.80;;;;;;;;;;10240277;28;20069;-66
2022/07/17 17:42:04;;;;;;;5.25;3.38;;;;;;;;;;10245034;28;20487;-66
2022/07/17 17:47:05;;;;;;;6.18;3.55;;;;;;;;;;10246091;28;20080;-66
2022/07/17 17:52:06;;;;;;;5.72;4.90;;;;;;;;;;10248410;28;20091;-66
2022/07/17 17:57:06;;;;;;;6.40;4.72;;;;;;;;;;10254602;28;20072;-66
2022/07/17 18:02:07;;;;;;;7.82;3.80;;;;;;;;;;10252339;28;20057;-67
2022/07/17 18:07:06;;;;;;;5.32;4.53;;;;;;;;;;10239573;28;20068;-67
2022/07/17 18:12:05;;;;;;;4.63;3.45;;;;;;;;;;10239276;28;20084;-67
2022/07/17 18:17:04;;;;;;;5.45;3.78;;;;;;;;;;10246306;28;20072;-66
2022/07/17 18:22:02;;;;;;;6.90;3.00;;;;;;;;;;10251038;28;20073;-66
2022/07/17 18:27:04;;;;;;;5.55;3.10;;;;;;;;;;10244990;28;20080;-66
2022/07/17 18:32:07;;;;;;;5.03;3.05;;;;;;;;;;10255814;28;20061;-67
2022/07/17 18:37:09;;;;;;;9.88;3.47;;;;;;;;;;10246469;28;20093;-66
2022/07/17 18:42:08;;;;;;;14.70;4.28;;;;;;;;;;10246203;28;20072;-67
2022/07/17 18:47:07;;;;;;;3.30;2.60;;;;;;;;;;10257585;28;20072;-66
2022/07/17 18:52:14;;;;;;;4.38;2.80;;;;;;;;;;10252329;28;20075;-66
2022/07/17 18:57:12;;;;;;;9.25;2.63;;;;;;;;;;10249546;28;20068;-66
2022/07/17 19:02:12;;;;;;;6.00;3.10;;;;;;;;;;10246601;28;20077;-66
2022/07/17 19:07:11;;;;;;;7.63;2.70;;;;;;;;;;10244697;28;20498;-66
2022/07/17 19:12:10;;;;;;;5.95;2.60;;;;;;;;;;10246762;28;20533;-66
2022/07/17 19:17:10;;;;;;;5.03;2.70;;;;;;;;;;10248146;28;20075;-67
2022/07/17 19:22:10;;;;;;;5.70;3.40;;;;;;;;;;10241218;28;20077;-67
2022/07/17 19:27:08;;;;;;;4.28;2.78;;;;;;;;;;10231409;28;20140;-66
2022/07/17 19:32:07;;;;;;;6.60;3.38;;;;;;;;;;10236886;28;20053;-66
2022/07/17 19:37:05;;;;;;;5.03;2.58;;;;;;;;;;10241522;28;20085;-67
2022/07/17 19:42:05;;;;;;;3.28;1.98;;;;;;;;;;10248953;28;20084;-68
2022/07/17 19:47:04;;;;;;;3.83;2.17;;;;;;;;;;10245395;28;20445;-66
2022/07/17 19:52:03;;;;;;;4.90;3.20;;;;;;;;;;10248727;28;20064;-64
2022/07/17 19:57:01;;;;;;;3.38;2.15;;;;;;;;;;10244895;28;20068;-67
2022/07/17 20:02:01;;;;;;;5.72;2.97;;;;;;;;;;10239871;28;20076;-66
2022/07/17 20:07:00;;;;;;;3.10;2.80;;;;;;;;;;10236288;28;20194;-67
2022/07/17 20:11:58;;;;;;;13.38;3.72;;;;;;;;;;10239365;28;20068;-66
2022/07/17 20:16:56;;;;;;;6.63;4.05;;;;;;;;;;10238302;28;20121;-65
2022/07/17 20:21:56;;;;;;;10.02;4.30;;;;;;;;;;10239504;28;20068;-66
2022/07/17 20:26:55;;;;;;;5.40;3.08;;;;;;;;;;10236118;28;20081;-65
2022/07/17 20:31:53;;;;;;;6.60;2.80;;;;;;;;;;10237698;28;20068;-65
2022/07/17 20:36:53;;;;;;;3.47;2.95;;;;;;;;;;10238067;28;20231;-65
2022/07/17 20:41:53;;;;;;;7.93;3.55;;;;;;;;;;10245743;28;20091;-66
2022/07/17 20:46:51;;;;;;;15.10;3.63;;;;;;;;;;10240448;28;20081;-66
2022/07/17 20:51:49;;;;;;;12.20;2.83;;;;;;;;;;10239021;28;20069;-65
2022/07/17 20:56:48;;;;;;;23.23;4.00;;;;;;;;;;10237330;28;20533;-66
2022/07/17 21:01:48;;;;;;;44.55;5.47;;;;;;;;;;10234395;28;20077;-65
2022/07/17 21:06:46;;;;;;;24.38;4.50;;;;;;;;;;10236816;28;20076;-65
2022/07/17 21:11:44;;;;;;;11.23;3.22;;;;;;;;;;10245138;28;20065;-65
2022/07/17 21:16:43;;;;;;;21.85;2.85;;;;;;;;;;10242929;28;20077;-66
2022/07/17 21:21:43;;;;;;;7.45;2.65;;;;;;;;;;10240471;28;20069;-66
2022/07/17 21:26:41;;;;;;;9.68;2.53;;;;;;;;;;10244895;28;20096;-65
2022/07/17 21:31:40;;;;;;;9.85;3.05;;;;;;;;;;10240543;28;20091;-65
2022/07/17 21:36:43;;;;;;;9.80;2.95;;;;;;;;;;10243347;28;20088;-65
2022/07/17 21:41:41;;;;;;;13.23;2.78;;;;;;;;;;10232587;28;20475;-65
2022/07/17 21:46:39;;;;;;;10.85;2.40;;;;;;;;;;10232192;28;20526;-65
2022/07/17 21:51:38;;;;;;;15.15;2.15;;;;;;;;;;10232802;28;20073;-65
2022/07/17 21:56:37;;;;;;;8.45;2.22;;;;;;;;;;10239969;28;20069;-63
2022/07/17 22:01:36;;;;;;;9.77;1.88;;;;;;;;;;10242518;28;20128;-65
2022/07/17 22:06:34;;;;;;;7.10;1.92;;;;;;;;;;10232377;28;20076;-66
2022/07/17 22:11:33;;;;;;;7.88;2.08;;;;;;;;;;10232866;28;20081;-65
2022/07/17 22:16:33;;;;;;;9.80;2.15;;;;;;;;;;10228016;28;20385;-64
2022/07/17 22:21:32;;;;;;;3.47;1.40;;;;;;;;;;10240534;28;20104;-64
2022/07/17 22:26:31;;;;;;;6.65;1.88;;;;;;;;;;10237105;28;20092;-65
2022/07/17 22:31:30;;;;;;;4.20;1.80;;;;;;;;;;10246229;28;20102;-64
2022/07/17 22:36:30;;;;;;;3.83;2.53;;;;;;;;;;10250339;28;20103;-64
2022/07/17 22:41:32;;;;;;;5.50;2.15;;;;;;;;;;10248854;28;20084;-64
2022/07/17 22:46:30;;;;;;;6.38;1.48;;;;;;;;;;10249442;28;20069;-64
2022/07/17 22:51:30;;;;;;;1.75;1.60;;;;;;;;;;10247610;28;20072;-64
2022/07/17 22:56:29;;;;;;;9.48;1.85;;;;;;;;;;10244880;28;20083;-64
2022/07/17 23:01:29;;;;;;;4.45;1.80;;;;;;;;;;10249589;28;20152;-63
2022/07/17 23:06:27;;;;;;;9.70;2.00;;;;;;;;;;10243775;28;20077;-63
2022/07/17 23:11:28;;;;;;;6.57;1.83;;;;;;;;;;10248367;28;20080;-63
2022/07/17 23:16:26;;;;;;;5.85;2.60;;;;;;;;;;10247496;28;20124;-64
2022/07/17 23:21:25;;;;;;;9.35;2.00;;;;;;;;;;10244270;28;20069;-66
2022/07/17 23:26:23;;;;;;;7.70;1.65;;;;;;;;;;10244877;28;20103;-65
2022/07/17 23:31:24;;;;;;;7.40;1.60;;;;;;;;;;10244013;28;20045;-64
2022/07/17 23:36:22;;;;;;;6.82;2.67;;;;;;;;;;10242431;28;20080;-65
2022/07/17 23:41:21;;;;;;;7.70;2.25;;;;;;;;;;10235058;28;20080;-64
2022/07/17 23:46:19;;;;;;;10.00;1.80;;;;;;;;;;10242632;28;20073;-64
2022/07/17 23:51:19;;;;;;;7.30;1.98;;;;;;;;;;10247104;28;20092;-64
2022/07/17 23:56:17;;;;;;;3.97;1.35;;;;;;;;;;10248500;28;20588;-65
